createdAt,value
2019-04-22T00:02:55.788Z,21.03
2019-04-22T00:06:19.057Z,21.20
2019-04-22T00:09:31.109Z,20.90
2019-04-22T00:12:34.619Z,21.23
2019-04-22T00:15:36.766Z,20.70
2019-04-22T00:19:04.360Z,21.27
2019-04-22T00:22:00.646Z,19.93
2019-04-22T00:25:03.311Z,20.40
2019-04-22T00:28:08.587Z,19.73
2019-04-22T00:31:32.749Z,19.97
2019-04-22T00:34:42.707Z,20.30
2019-04-22T00:37:59.795Z,20.57
2019-04-22T00:41:00.988Z,19.87
2019-04-22T00:44:12.294Z,20.10
2019-04-22T00:47:16.413Z,21.13
2019-04-22T00:50:22.437Z,21.77
2019-04-22T00:56:28.385Z,20.53
2019-04-22T00:59:43.310Z,20.90
2019-04-22T01:02:52.943Z,21.00
2019-04-22T01:05:46.835Z,20.80
2019-04-22T01:08:57.912Z,21.60
2019-04-22T01:12:00.410Z,21.37
2019-04-22T01:15:07.490Z,22.07
2019-04-22T01:18:11.465Z,22.43
2019-04-22T01:21:24.426Z,22.57
2019-04-22T01:24:22.136Z,22.17
2019-04-22T01:27:20.478Z,21.87
2019-04-22T01:30:27.904Z,22.50
2019-04-22T01:33:29.358Z,22.57
2019-04-22T01:36:51.737Z,23.27
2019-04-22T01:40:04.755Z,23.47
2019-04-22T01:43:07.299Z,23.37
2019-04-22T01:46:23.511Z,23.50
2019-04-22T01:49:25.692Z,23.33
2019-04-22T01:52:22.061Z,23.43
2019-04-22T01:58:33.308Z,23.20
2019-04-22T02:04:53.545Z,23.00
2019-04-22T02:08:02.514Z,22.70
2019-04-22T02:11:03.957Z,22.73
2019-04-22T02:14:11.636Z,22.33
2019-04-22T02:17:17.658Z,21.47
2019-04-22T02:20:18.409Z,22.30
2019-04-22T02:26:35.840Z,21.07
2019-04-22T02:29:45.460Z,20.60
2019-04-22T02:33:08.028Z,21.17
2019-04-22T02:42:10.729Z,21.87
2019-04-22T02:45:17.905Z,22.33
2019-04-22T02:48:40.179Z,21.83
2019-04-22T03:00:58.544Z,22.17
2019-04-22T03:04:01.235Z,21.57
2019-04-22T03:06:46.013Z,22.70
2019-04-22T03:10:18.935Z,22.73
2019-04-22T03:13:21.667Z,22.83
2019-04-22T03:22:30.218Z,22.73
2019-04-22T03:28:47.669Z,21.43
2019-04-22T03:38:21.123Z,20.13
2019-04-22T03:41:27.205Z,18.63
2019-04-22T03:53:34.043Z,13.63
2019-04-22T03:59:54.140Z,13.43
2019-04-22T04:03:04.666Z,13.37
2019-04-22T04:09:12.834Z,12.67
2019-04-22T04:12:21.571Z,12.40
2019-04-22T04:15:21.095Z,13.13
2019-04-22T04:18:26.534Z,13.27
2019-04-22T04:21:37.393Z,13.90
2019-04-22T04:28:22.937Z,14.20
2019-04-22T04:30:46.566Z,14.23
2019-04-22T04:34:00.515Z,14.60
2019-04-22T04:37:15.105Z,16.33
2019-04-22T04:40:11.827Z,16.73
2019-04-22T04:46:33.750Z,17.87
2019-04-22T04:49:36.293Z,17.13
2019-04-22T04:58:56.402Z,17.97
2019-04-22T05:05:08.324Z,18.73
2019-04-22T05:08:00.804Z,18.53
2019-04-22T05:11:06.780Z,21.30
2019-04-22T05:14:09.544Z,20.17
2019-04-22T05:17:23.499Z,20.37
2019-04-22T05:23:30.477Z,20.23
2019-04-22T05:26:32.907Z,20.60
2019-04-22T05:29:56.557Z,20.10
2019-04-22T05:32:44.702Z,19.43
2019-04-22T05:35:49.380Z,19.50
2019-04-22T05:39:00.078Z,20.03
2019-04-22T05:42:07.502Z,19.13
2019-04-22T05:45:13.272Z,19.40
2019-04-22T05:48:09.406Z,18.77
2019-04-22T05:51:21.431Z,18.67
2019-04-22T05:54:27.324Z,17.83
2019-04-22T05:57:33.025Z,18.57
2019-04-22T06:01:03.965Z,18.03
2019-04-22T06:03:56.477Z,18.83
2019-04-22T06:06:46.881Z,18.27
2019-04-22T06:10:08.347Z,17.33
2019-04-22T06:13:00.865Z,17.33
2019-04-22T06:16:20.454Z,18.13
2019-04-22T06:19:21.597Z,17.00
2019-04-22T06:22:40.020Z,17.10
2019-04-22T06:25:55.032Z,17.67
2019-04-22T06:28:48.172Z,17.03
2019-04-22T06:32:15.302Z,16.87
2019-04-22T06:35:01.129Z,15.83
2019-04-22T06:38:22.803Z,16.67
2019-04-22T06:41:09.062Z,16.33
2019-04-22T06:44:26.528Z,15.07
2019-04-22T06:47:38.266Z,15.17
2019-04-22T06:50:27.200Z,15.80
2019-04-22T06:53:29.836Z,14.57
2019-04-22T06:56:35.638Z,14.27
2019-04-22T06:59:49.909Z,14.17
2019-04-22T07:03:12.366Z,14.03
2019-04-22T07:05:52.392Z,14.40
2019-04-22T07:09:20.620Z,12.63
2019-04-22T07:12:06.508Z,13.17
2019-04-22T07:21:24.005Z,12.53
2019-04-22T07:27:34.706Z,12.87
2019-04-22T07:30:40.751Z,12.90
2019-04-22T07:33:51.125Z,12.10
2019-04-22T07:36:59.260Z,12.83
2019-04-22T07:39:56.971Z,11.70
2019-04-22T07:43:14.877Z,13.30
2019-04-22T07:46:13.576Z,12.50
2019-04-22T07:49:22.021Z,12.57
2019-04-22T07:52:24.668Z,10.60
2019-04-22T07:55:27.640Z,10.47
2019-04-22T07:58:38.757Z,8.80
2019-04-22T08:01:59.138Z,9.07
2019-04-22T08:05:01.961Z,8.50
2019-04-22T08:07:59.462Z,8.60
2019-04-22T08:11:08.164Z,7.03
2019-04-22T08:14:07.509Z,7.20
2019-04-22T08:17:40.156Z,5.97
2019-04-22T08:20:26.896Z,6.20
2019-04-22T08:23:31.838Z,5.90
2019-04-22T08:26:32.293Z,6.07
2019-04-22T08:29:45.989Z,5.87
2019-04-22T08:36:11.971Z,5.87
2019-04-22T08:39:02.508Z,5.47
2019-04-22T08:42:27.790Z,4.83
2019-04-22T08:45:28.607Z,3.60
2019-04-22T08:48:31.189Z,3.70
2019-04-22T08:51:49.106Z,2.93
2019-04-22T08:54:49.062Z,3.00
2019-04-22T09:00:57.274Z,3.43
2019-04-22T09:10:11.430Z,3.87
2019-04-22T09:13:14.543Z,4.07
2019-04-22T09:19:47.767Z,4.10
2019-04-22T09:22:53.723Z,4.33
2019-04-22T09:26:06.596Z,4.17
2019-04-22T09:32:24.849Z,4.40
2019-04-22T09:35:16.009Z,5.33
2019-04-22T09:38:32.935Z,6.53
2019-04-22T09:41:31.782Z,5.37
2019-04-22T09:44:36.231Z,4.70
2019-04-22T09:47:53.727Z,5.13
2019-04-22T09:50:48.011Z,6.70
2019-04-22T09:54:00.988Z,6.23
2019-04-22T09:57:02.104Z,6.40
2019-04-22T10:00:10.247Z,5.60
2019-04-22T10:03:13.668Z,5.80
2019-04-22T10:15:39.253Z,5.90
2019-04-22T10:18:49.040Z,5.77
2019-04-22T10:21:54.488Z,5.97
2019-04-22T10:24:57.052Z,6.10
2019-04-22T10:28:10.415Z,6.07
2019-04-22T10:31:19.290Z,5.57
2019-04-22T10:33:59.940Z,6.10
2019-04-22T10:37:02.084Z,6.17
2019-04-22T10:40:03.972Z,5.63
2019-04-22T10:43:11.529Z,3.90
2019-04-22T10:46:15.924Z,4.07
2019-04-22T10:49:20.375Z,3.70
2019-04-22T10:52:25.654Z,3.20
2019-04-22T10:55:30.015Z,3.20
2019-04-22T10:58:34.948Z,3.13
2019-04-22T11:01:40.334Z,4.03
2019-04-22T11:04:45.970Z,3.60
2019-04-22T11:07:57.911Z,3.70
2019-04-22T11:11:10.657Z,3.50
2019-04-22T11:14:04.982Z,3.90
2019-04-22T11:17:13.493Z,3.23
2019-04-22T11:20:19.722Z,3.83
2019-04-22T11:23:24.688Z,3.27
2019-04-22T11:26:30.197Z,3.60
2019-04-22T11:29:35.390Z,4.10
2019-04-22T11:32:40.410Z,4.37
2019-04-22T11:35:45.896Z,3.90
2019-04-22T11:38:57.953Z,4.10
2019-04-22T11:41:58.267Z,4.40
2019-04-22T11:45:03.588Z,4.60
2019-04-22T11:48:09.137Z,4.53
2019-04-22T11:51:14.013Z,5.33
2019-04-22T11:54:18.908Z,5.27
2019-04-22T11:57:23.560Z,5.00
2019-04-22T12:00:36.996Z,4.47
2019-04-22T12:03:41.975Z,4.60
2019-04-22T12:06:46.482Z,4.33
2019-04-22T12:09:51.383Z,4.20
2019-04-22T12:12:55.822Z,4.53
2019-04-22T12:16:00.951Z,4.93
2019-04-22T12:19:05.442Z,3.93
2019-04-22T12:22:10.988Z,4.40
2019-04-22T12:25:30.015Z,4.83
2019-04-22T12:28:23.239Z,4.87
2019-04-22T12:31:27.627Z,5.10
2019-04-22T12:34:33.404Z,4.97
2019-04-22T12:37:46.766Z,5.57
2019-04-22T12:40:51.319Z,5.43
2019-04-22T12:43:51.313Z,5.33
2019-04-22T12:46:56.444Z,5.17
2019-04-22T12:50:08.979Z,5.37
2019-04-22T12:53:10.620Z,4.97
2019-04-22T12:56:12.908Z,5.77
2019-04-22T12:59:17.486Z,4.93
2019-04-22T13:02:23.011Z,4.33
2019-04-22T13:05:29.092Z,4.57
2019-04-22T13:08:33.969Z,4.20
2019-04-22T13:11:38.941Z,4.40
2019-04-22T13:14:45.545Z,4.27
2019-04-22T13:18:01.267Z,4.13
2019-04-22T13:20:56.760Z,3.97
2019-04-22T13:24:02.716Z,3.63
2019-04-22T13:27:07.063Z,3.73
2019-04-22T13:30:14.483Z,4.50
2019-04-22T13:33:20.981Z,5.20
2019-04-22T13:36:27.748Z,5.10
2019-04-22T13:39:31.996Z,5.90
2019-04-22T13:42:37.485Z,6.20
2019-04-22T13:45:42.013Z,5.63
2019-04-22T13:49:17.892Z,6.10
2019-04-22T13:52:31.948Z,5.47
2019-04-22T13:55:25.440Z,5.07
2019-04-22T13:58:17.105Z,5.50
2019-04-22T14:01:14.882Z,4.80
2019-04-22T14:04:24.771Z,4.93
2019-04-22T14:07:30.611Z,4.50
2019-04-22T14:10:36.288Z,4.67
2019-04-22T14:13:41.902Z,4.90
2019-04-22T14:16:46.924Z,5.30
2019-04-22T14:19:52.692Z,5.50
2019-04-22T14:22:57.153Z,5.33
2019-04-22T14:26:02.587Z,5.73
2019-04-22T14:29:08.057Z,5.80
2019-04-22T14:32:21.425Z,6.97
2019-04-22T14:35:23.022Z,7.13
2019-04-22T14:38:27.992Z,8.30
2019-04-22T14:41:49.761Z,8.70
2019-04-22T14:45:20.190Z,8.70
2019-04-22T14:48:05.831Z,9.30
2019-04-22T14:51:07.089Z,9.47
2019-04-22T14:54:16.901Z,7.03
2019-04-22T14:57:03.309Z,6.37
2019-04-22T15:00:11.513Z,6.90
2019-04-22T15:03:17.549Z,6.47
2019-04-22T15:06:22.327Z,5.90
2019-04-22T15:09:28.080Z,6.00
2019-04-22T15:12:42.298Z,6.40
2019-04-22T15:15:51.193Z,6.00
2019-04-22T15:19:09.608Z,5.83
2019-04-22T15:22:14.615Z,6.07
2019-04-22T15:25:19.036Z,6.17
2019-04-22T15:28:23.772Z,6.33
2019-04-22T15:31:29.361Z,6.93
2019-04-22T15:34:34.603Z,6.90
2019-04-22T15:37:39.481Z,7.03
2019-04-22T15:40:44.834Z,7.00
2019-04-22T15:43:50.188Z,7.07
2019-04-22T15:46:55.058Z,6.27
2019-04-22T15:50:00.275Z,7.30
2019-04-22T15:53:04.738Z,6.70
2019-04-22T15:56:10.433Z,5.83
2019-04-22T15:59:30.187Z,6.07
2019-04-22T16:02:21.457Z,5.47
2019-04-22T16:05:27.916Z,5.57
2019-04-22T16:08:34.201Z,7.33
2019-04-22T16:11:40.420Z,7.83
2019-04-22T16:14:50.616Z,8.30
2019-04-22T16:17:50.911Z,8.33
2019-04-22T16:20:56.435Z,7.93
2019-04-22T16:24:27.915Z,7.50
2019-04-22T16:27:34.358Z,7.60
2019-04-22T16:30:39.486Z,7.67
2019-04-22T16:33:47.686Z,9.70
2019-04-22T16:36:52.547Z,14.00
2019-04-22T16:39:58.960Z,9.13
2019-04-22T16:43:06.190Z,7.87
2019-04-22T16:46:09.766Z,6.77
2019-04-22T16:49:14.288Z,6.40
2019-04-22T16:52:20.108Z,7.80
2019-04-22T16:55:26.597Z,7.83
2019-04-22T16:58:32.618Z,6.70
2019-04-22T17:01:59.124Z,6.67
2019-04-22T17:05:35.930Z,8.90
2019-04-22T17:08:40.617Z,10.27
2019-04-22T17:11:45.736Z,10.83
2019-04-22T17:14:56.320Z,9.10
2019-04-22T17:17:57.139Z,9.13
2019-04-22T17:21:10.636Z,9.40
2019-04-22T17:24:19.429Z,8.50
2019-04-22T17:27:24.771Z,9.33
2019-04-22T17:30:31.051Z,9.50
2019-04-22T17:33:36.995Z,10.03
2019-04-22T17:36:42.375Z,9.47
2019-04-22T17:40:05.615Z,9.87
2019-04-22T17:43:23.832Z,8.40
2019-04-22T17:46:31.006Z,8.60
2019-04-22T17:50:08.529Z,8.27
2019-04-22T17:53:02.578Z,8.37
2019-04-22T17:56:08.588Z,7.63
2019-04-22T17:59:08.285Z,8.30
2019-04-22T18:02:11.160Z,7.93
2019-04-22T18:05:04.227Z,9.00
2019-04-22T18:08:25.592Z,8.00
2019-04-22T18:11:39.711Z,9.53
2019-04-22T18:14:51.607Z,9.43
2019-04-22T18:17:54.202Z,8.40
2019-04-22T18:20:48.933Z,7.47
2019-04-22T18:28:08.297Z,7.07
2019-04-22T18:30:46.675Z,7.37
2019-04-22T18:33:55.619Z,6.80
2019-04-22T18:36:59.096Z,6.03
2019-04-22T18:40:14.890Z,6.27
2019-04-22T18:43:26.254Z,6.50
2019-04-22T18:46:25.403Z,6.50
2019-04-22T18:49:33.935Z,6.53
2019-04-22T18:53:14.435Z,6.90
2019-04-22T18:56:19.274Z,7.00
2019-04-22T18:59:13.775Z,7.60
2019-04-22T19:02:16.294Z,7.03
2019-04-22T19:05:34.721Z,7.23
2019-04-22T19:08:50.143Z,6.50
2019-04-22T19:12:08.743Z,6.43
2019-04-22T19:15:05.457Z,7.00
2019-04-22T19:18:14.828Z,7.23
2019-04-22T19:21:13.195Z,8.00
2019-04-22T19:24:15.016Z,7.47
2019-04-22T19:27:26.795Z,6.67
2019-04-22T19:30:39.532Z,6.43
2019-04-22T19:33:42.668Z,5.93
2019-04-22T19:36:46.881Z,5.50
2019-04-22T19:40:03.333Z,5.60
2019-04-22T19:43:03.968Z,6.53
2019-04-22T19:46:02.202Z,5.47
2019-04-22T19:49:19.917Z,6.87
2019-04-22T19:52:24.970Z,6.00
2019-04-22T19:55:25.430Z,6.07
2019-04-22T19:58:27.800Z,6.00
2019-04-22T20:01:49.461Z,6.43
2019-04-22T20:05:10.785Z,6.07
2019-04-22T20:08:14.644Z,6.57
2019-04-22T20:11:22.718Z,6.70
2019-04-22T20:14:28.389Z,5.93
2019-04-22T20:17:52.567Z,5.73
2019-04-22T20:20:49.076Z,5.90
2019-04-22T20:23:45.668Z,6.23
2019-04-22T20:27:10.565Z,6.63
2019-04-22T20:30:04.743Z,5.97
2019-04-22T20:33:08.401Z,6.13
2019-04-22T20:36:42.569Z,6.33
2019-04-22T20:39:33.366Z,5.93
2019-04-22T20:45:40.241Z,6.13
2019-04-22T20:48:50.297Z,6.03
2019-04-22T20:52:13.656Z,5.53
2019-04-22T20:54:58.867Z,5.37
2019-04-22T20:58:05.110Z,5.70
2019-04-22T21:01:05.257Z,5.77
2019-04-22T21:04:03.511Z,5.53
2019-04-22T21:07:20.126Z,5.73
2019-04-22T21:10:22.817Z,6.13
2019-04-22T21:13:34.344Z,5.53
2019-04-22T21:16:43.193Z,5.70
2019-04-22T21:20:00.605Z,5.67
2019-04-22T21:22:58.231Z,5.57
2019-04-22T21:26:02.402Z,5.40
2019-04-22T21:29:09.892Z,5.07
2019-04-22T21:32:17.656Z,5.40
2019-04-22T21:35:43.612Z,5.27
2019-04-22T21:38:35.480Z,5.00
2019-04-22T21:41:34.458Z,4.37
2019-04-22T21:44:42.685Z,4.97
2019-04-22T21:47:57.484Z,4.80
2019-04-22T21:50:59.918Z,4.87
2019-04-22T21:54:04.089Z,5.37
2019-04-22T21:57:46.133Z,4.83
2019-04-22T22:00:43.261Z,4.67
2019-04-22T22:03:48.617Z,4.70
2019-04-22T22:06:42.561Z,4.77
2019-04-22T22:09:59.655Z,5.10
2019-04-22T22:13:06.644Z,4.40
2019-04-22T22:16:10.314Z,5.03
2019-04-22T22:19:14.499Z,4.73
2019-04-22T22:22:41.984Z,4.83
2019-04-22T22:25:28.059Z,4.97
2019-04-22T22:29:01.965Z,5.17
2019-04-22T22:31:47.189Z,5.07
2019-04-22T22:34:50.573Z,5.20
2019-04-22T22:37:55.183Z,5.37
2019-04-22T22:40:43.969Z,4.83
2019-04-22T22:43:51.201Z,5.13
2019-04-22T22:47:10.169Z,5.27
2019-04-22T22:50:20.589Z,5.27
2019-04-22T22:53:37.293Z,5.23
2019-04-22T22:56:42.299Z,4.70
2019-04-22T22:59:38.965Z,4.70
2019-04-22T23:03:03.518Z,4.93
2019-04-22T23:05:59.025Z,4.90
2019-04-22T23:09:05.693Z,4.77
2019-04-22T23:12:13.307Z,4.33
2019-04-22T23:15:08.887Z,4.63
2019-04-22T23:17:56.170Z,5.23
2019-04-22T23:21:01.446Z,5.30
2019-04-22T23:24:43.742Z,4.77
2019-04-22T23:27:56.392Z,5.23
2019-04-22T23:31:18.034Z,5.00
2019-04-22T23:34:26.563Z,4.73
2019-04-22T23:37:39.620Z,4.50
2019-04-22T23:40:45.085Z,4.90
2019-04-22T23:43:57.596Z,5.43
2019-04-22T23:47:02.021Z,4.47
2019-04-22T23:50:09.518Z,4.97
2019-04-22T23:54:04.380Z,4.80
2019-04-22T23:56:35.140Z,5.23
